Time;durP1;ratioP1;P1;durP2;ratioP2;P2;SDS_P1;SDS_P2;PMS_P1;PMS_P2;Temp;Humidity;BMP_temperature;BMP_pressure;BME280_temperature;BME280_humidity;BME280_pressure;Samples;Min_cycle;Max_cycle;Signal;HPM_P1;HPM_P2
2022/05/20 00:00:23;;;;;;;0.40;0.40;;;19.20;1.00;;;;;;5014774;28;20207;-79
2022/05/20 00:02:48;;;;;;;0.33;0.33;;;19.20;1.00;;;;;;5010600;28;20303;-77
2022/05/20 00:05:14;;;;;;;0.30;0.30;;;19.20;1.00;;;;;;5014503;28;20212;-77
2022/05/20 00:07:40;;;;;;;0.30;0.30;;;19.10;1.00;;;;;;5007490;28;20217;-77
2022/05/20 00:10:07;;;;;;;0.30;0.30;;;19.10;1.00;;;;;;5015596;28;20274;-78
2022/05/20 00:12:33;;;;;;;0.30;0.30;;;19.00;1.00;;;;;;5015579;28;20200;-78
2022/05/20 00:14:58;;;;;;;0.30;0.30;;;19.00;1.00;;;;;;5015715;28;20187;-77
2022/05/20 00:17:24;;;;;;;0.30;0.30;;;19.00;99.90;;;;;;5015896;28;20172;-77
2022/05/20 00:19:49;;;;;;;0.30;0.30;;;19.00;99.90;;;;;;5014445;28;20183;-77
2022/05/20 00:22:15;;;;;;;0.30;0.30;;;19.00;99.90;;;;;;5015294;28;20573;-79
2022/05/20 00:25:45;;;;;;;0.30;0.30;;;18.90;99.90;;;;;;5015499;28;20212;-78
2022/05/20 00:27:26;;;;;;;0.30;0.30;;;18.90;99.90;;;;;;5015020;28;20260;-78
2022/05/20 00:29:51;;;;;;;0.20;0.20;;;18.90;99.90;;;;;;5014395;28;20831;-78
2022/05/20 00:32:17;;;;;;;0.30;0.30;;;18.80;99.90;;;;;;5014862;28;20192;-77
2022/05/20 00:34:43;;;;;;;0.30;0.30;;;18.70;99.90;;;;;;5014592;28;20184;-78
2022/05/20 00:37:08;;;;;;;0.20;0.20;;;18.60;1.00;;;;;;5014951;28;20176;-78
2022/05/20 00:39:34;;;;;;;0.30;0.30;;;18.60;99.90;;;;;;5014807;28;20176;-76
2022/05/20 00:42:07;;;;;;;0.30;0.30;;;18.60;99.90;;;;;;5014825;28;20320;-76
2022/05/20 00:44:33;;;;;;;0.30;0.30;;;18.60;99.90;;;;;;5014344;28;20180;-76
2022/05/20 00:46:58;;;;;;;0.30;0.30;;;18.50;99.90;;;;;;5014804;28;20179;-78
2022/05/20 00:49:24;;;;;;;0.20;0.20;;;18.40;99.90;;;;;;5014314;28;20271;-77
2022/05/20 00:51:52;;;;;;;0.30;0.30;;;18.30;1.00;;;;;;5014845;28;20200;-78
2022/05/20 00:54:26;;;;;;;0.30;0.30;;;18.20;1.00;;;;;;5015203;28;20184;-78
2022/05/20 00:57:07;;;;;;;0.30;0.30;;;18.20;1.00;;;;;;5014875;28;20650;-80
2022/05/20 00:59:37;;;;;;;0.30;0.30;;;18.10;1.00;;;;;;5014299;28;20172;-77
2022/05/20 01:02:10;;;;;;;0.30;0.30;;;18.10;1.00;;;;;;5013963;28;20216;-77
2022/05/20 01:04:38;;;;;;;0.20;0.20;;;18.00;1.00;;;;;;5013019;28;20684;-77
2022/05/20 01:07:05;;;;;;;0.30;0.30;;;18.10;1.00;;;;;;5014356;28;20177;-78
2022/05/20 01:09:31;;;;;;;0.40;0.40;;;18.00;1.00;;;;;;5014263;28;20212;-78
2022/05/20 01:11:57;;;;;;;0.30;0.30;;;18.00;1.00;;;;;;5014709;28;20219;-77
2022/05/20 01:14:25;;;;;;;0.30;0.30;;;17.90;1.00;;;;;;5014566;28;20180;-77
2022/05/20 01:16:52;;;;;;;0.30;0.30;;;17.90;1.00;;;;;;5014518;28;20581;-77
2022/05/20 01:19:35;;;;;;;0.40;0.40;;;17.90;1.00;;;;;;5013800;28;20183;-78
2022/05/20 01:22:02;;;;;;;0.37;0.37;;;17.90;1.00;;;;;;5014345;28;20220;-77
2022/05/20 01:24:28;;;;;;;0.30;0.30;;;17.80;1.00;;;;;;5015701;28;20176;-78
2022/05/20 01:26:53;;;;;;;0.30;0.30;;;17.80;1.00;;;;;;5016552;28;20383;-76
2022/05/20 01:29:19;;;;;;;0.20;0.20;;;17.90;1.00;;;;;;5015251;28;20274;-77
2022/05/20 01:31:45;;;;;;;0.30;0.30;;;17.80;1.00;;;;;;5013622;28;20203;-76
2022/05/20 01:34:10;;;;;;;0.40;0.40;;;17.80;1.00;;;;;;5013331;28;20183;-77
2022/05/20 01:36:36;;;;;;;0.30;0.30;;;17.70;1.00;;;;;;5013444;28;20177;-77
2022/05/20 01:39:02;;;;;;;0.30;0.30;;;17.70;1.00;;;;;;5012953;28;20180;-77
2022/05/20 01:41:39;;;;;;;0.30;0.30;;;17.70;1.00;;;;;;5013396;28;20197;-77
2022/05/20 01:44:24;;;;;;;0.40;0.40;;;17.70;1.00;;;;;;5013931;28;20182;-77
2022/05/20 01:47:12;;;;;;;0.40;0.40;;;17.70;1.00;;;;;;5012885;28;20180;-76
2022/05/20 01:49:47;;;;;;;0.30;0.30;;;17.70;1.00;;;;;;5012983;28;20639;-78
2022/05/20 01:52:27;;;;;;;0.23;0.23;;;17.70;1.00;;;;;;5013451;28;20286;-76
2022/05/20 01:55:17;;;;;;;0.50;0.50;;;17.60;1.00;;;;;;5013329;28;20180;-76
2022/05/20 01:57:53;;;;;;;0.30;0.30;;;17.60;1.00;;;;;;5012878;28;20192;-77
2022/05/20 02:00:22;;;;;;;0.30;0.30;;;17.60;1.00;;;;;;5012591;28;20180;-76
2022/05/20 02:03:12;;;;;;;0.30;0.30;;;17.50;1.00;;;;;;5012649;28;20675;-77
2022/05/20 02:06:22;;;;;;;0.30;0.30;;;17.50;1.00;;;;;;5012836;28;20183;-78
2022/05/20 02:09:00;;;;;;;0.37;0.37;;;17.40;1.00;;;;;;5003533;28;20216;-77
2022/05/20 02:11:34;;;;;;;0.27;0.27;;;17.40;1.00;;;;;;5013564;28;20196;-76
2022/05/20 02:14:08;;;;;;;0.30;0.30;;;17.40;1.00;;;;;;5012984;28;20179;-79
2022/05/20 02:16:39;;;;;;;0.30;0.30;;;17.40;1.00;;;;;;5013168;28;20172;-76
2022/05/20 02:19:16;;;;;;;0.30;0.30;;;17.30;1.00;;;;;;5012252;28;20207;-78
2022/05/20 02:21:47;;;;;;;0.30;0.30;;;17.30;1.00;;;;;;5012239;28;20207;-77
2022/05/20 02:24:16;;;;;;;0.30;0.30;;;17.30;1.00;;;;;;5012446;28;20183;-77
2022/05/20 02:26:51;;;;;;;0.40;0.40;;;17.20;1.00;;;;;;5012755;28;20177;-77
2022/05/20 02:29:21;;;;;;;0.40;0.40;;;17.20;1.00;;;;;;5011962;28;20594;-77
2022/05/20 02:32:06;;;;;;;0.30;0.30;;;17.30;1.00;;;;;;5012198;28;20565;-77
2022/05/20 02:34:34;;;;;;;0.37;0.37;;;17.30;1.00;;;;;;5012489;28;20204;-77
2022/05/20 02:37:01;;;;;;;0.30;0.30;;;17.20;1.00;;;;;;5012492;28;20180;-76
2022/05/20 02:39:26;;;;;;;0.30;0.30;;;17.20;1.00;;;;;;5011961;28;20268;-77
2022/05/20 02:41:54;;;;;;;0.30;0.30;;;17.20;1.00;;;;;;5012017;28;20716;-77
2022/05/20 02:44:19;;;;;;;0.50;0.50;;;17.20;1.00;;;;;;5012454;28;20168;-77
2022/05/20 02:46:47;;;;;;;0.20;0.20;;;17.30;1.00;;;;;;5011919;28;20181;-77
2022/05/20 02:49:13;;;;;;;0.30;0.30;;;17.30;1.00;;;;;;5011180;28;20212;-77
2022/05/20 02:51:38;;;;;;;0.40;0.40;;;17.20;1.00;;;;;;5011551;28;20219;-76
2022/05/20 02:54:04;;;;;;;0.40;0.40;;;17.20;1.00;;;;;;5011724;28;20180;-77
2022/05/20 02:56:31;;;;;;;0.30;0.30;;;17.20;1.00;;;;;;5011900;28;20596;-77
2022/05/20 03:04:24;;;;;;;0.30;0.30;;;17.20;1.00;;;;;;5011881;28;20707;-77
2022/05/20 03:06:51;;;;;;;0.40;0.40;;;17.10;1.00;;;;;;5011922;28;20177;-78
2022/05/20 03:09:22;;;;;;;0.40;0.40;;;17.10;1.00;;;;;;5011402;28;20686;-77
2022/05/20 03:11:48;;;;;;;0.40;0.40;;;17.00;1.00;;;;;;5011994;28;20195;-77
2022/05/20 03:14:17;;;;;;;0.30;0.30;;;17.00;1.00;;;;;;5012114;28;20183;-77
2022/05/20 03:16:43;;;;;;;0.30;0.30;;;16.90;1.00;;;;;;5012363;28;20864;-77
2022/05/20 03:19:09;;;;;;;0.30;0.30;;;16.90;1.00;;;;;;5011609;28;20231;-77
2022/05/20 03:21:36;;;;;;;0.30;0.30;;;16.90;1.00;;;;;;5011908;28;20685;-78
2022/05/20 03:24:04;;;;;;;0.30;0.30;;;16.90;1.00;;;;;;5012172;28;20176;-77
2022/05/20 03:26:30;;;;;;;0.40;0.40;;;16.90;1.00;;;;;;5007483;28;20212;-77
2022/05/20 03:28:59;;;;;;;0.33;0.33;;;16.90;1.00;;;;;;5010909;28;20239;-77
2022/05/20 03:31:26;;;;;;;0.30;0.30;;;16.80;1.00;;;;;;5011809;28;20207;-77
2022/05/20 03:33:52;;;;;;;0.40;0.40;;;16.80;1.00;;;;;;5012203;28;20188;-77
2022/05/20 03:36:18;;;;;;;0.30;0.30;;;16.70;1.00;;;;;;5012121;28;20173;-77
2022/05/20 03:38:44;;;;;;;0.40;0.40;;;16.60;1.50;;;;;;5012285;28;20180;-75
2022/05/20 03:41:10;;;;;;;0.30;0.30;;;16.70;1.00;;;;;;5009659;28;20303;-76
2022/05/20 03:43:36;;;;;;;0.40;0.40;;;16.60;1.00;;;;;;5011351;28;20219;-77
2022/05/20 03:46:02;;;;;;;0.30;0.30;;;16.70;1.00;;;;;;5011366;28;20204;-78
2022/05/20 03:48:28;;;;;;;0.40;0.40;;;16.70;30.00;;;;;;5011417;28;20224;-78
2022/05/20 03:50:53;;;;;;;0.40;0.40;;;16.70;18.70;;;;;;5010881;28;20551;-77
2022/05/20 03:53:19;;;;;;;0.30;0.30;;;16.60;1.00;;;;;;5011186;28;20200;-77
2022/05/20 03:55:45;;;;;;;0.30;0.30;;;16.60;20.70;;;;;;5015133;28;20180;-77
2022/05/20 03:58:11;;;;;;;0.30;0.30;;;16.60;56.20;;;;;;5014833;28;20518;-78
2022/05/20 04:03:22;;;;;;;0.30;0.30;;;16.70;65.30;;;;;;5015082;28;20231;-77
2022/05/20 04:05:48;;;;;;;0.30;0.30;;;16.70;23.40;;;;;;5009291;28;20184;-76
2022/05/20 04:08:14;;;;;;;0.30;0.30;;;16.70;6.10;;;;;;5012629;28;20181;-75
2022/05/20 04:10:40;;;;;;;0.40;0.40;;;16.70;1.00;;;;;;5013759;28;20173;-76
2022/05/20 04:13:06;;;;;;;0.30;0.30;;;16.80;1.00;;;;;;5014768;28;20172;-75
2022/05/20 04:15:32;;;;;;;0.30;0.30;;;16.80;4.80;;;;;;5014562;28;20549;-76
2022/05/20 04:17:57;;;;;;;0.40;0.40;;;16.90;18.40;;;;;;5012814;28;20180;-77
2022/05/20 04:20:23;;;;;;;0.30;0.30;;;17.00;49.50;;;;;;5010890;28;20185;-76
2022/05/20 04:22:48;;;;;;;0.40;0.40;;;17.00;64.20;;;;;;5014280;28;20208;-76
2022/05/20 04:25:14;;;;;;;0.40;0.40;;;17.10;41.50;;;;;;5014181;28;20172;-76
2022/05/20 04:27:40;;;;;;;0.30;0.30;;;17.00;1.00;;;;;;5014314;28;20177;-76
2022/05/20 04:30:07;;;;;;;0.33;0.33;;;17.10;12.60;;;;;;5013833;28;20686;-76
2022/05/20 04:32:32;;;;;;;0.40;0.40;;;17.10;1.00;;;;;;5014245;28;20220;-76
2022/05/20 04:34:58;;;;;;;0.30;0.30;;;17.10;4.80;;;;;;5014253;28;20617;-76
2022/05/20 04:37:25;;;;;;;0.30;0.30;;;17.00;1.00;;;;;;5014483;28;20263;-76
2022/05/20 04:39:51;;;;;;;0.30;0.30;;;17.00;26.90;;;;;;5013363;28;20263;-76
2022/05/20 04:47:44;;;;;;;0.30;0.30;;;16.90;99.90;;;;;;5014362;28;20184;-76
2022/05/20 04:50:11;;;;;;;0.30;0.30;;;16.90;99.90;;;;;;5013287;28;20602;-76
2022/05/20 04:52:37;;;;;;;0.30;0.30;;;17.00;99.90;;;;;;5014084;28;20339;-75
2022/05/20 04:55:04;;;;;;;0.30;0.30;;;17.00;82.80;;;;;;5013531;28;20596;-75
2022/05/20 04:57:41;;;;;;;0.30;0.30;;;17.00;60.80;;;;;;5014110;28;20176;-77
2022/05/20 05:00:14;;;;;;;0.30;0.30;;;17.10;21.20;;;;;;4994036;28;20564;-76
2022/05/20 05:02:40;;;;;;;0.30;0.30;;;17.20;55.80;;;;;;4994215;28;20201;-76
2022/05/20 05:05:08;;;;;;;0.40;0.40;;;17.40;21.80;;;;;;4994147;28;20236;-76
2022/05/20 05:07:39;;;;;;;0.40;0.40;;;17.70;1.00;;;;;;4994317;28;20319;-76
2022/05/20 05:10:05;;;;;;;0.30;0.30;;;18.00;1.00;;;;;;4993318;28;20308;-76
2022/05/20 05:12:30;;;;;;;0.40;0.40;;;18.20;1.00;;;;;;4993909;28;20204;-76
2022/05/20 05:14:56;;;;;;;0.30;0.30;;;18.30;1.00;;;;;;4994040;28;20187;-75
2022/05/20 05:20:16;;;;;;;0.30;0.30;;;18.30;1.00;;;;;;4993297;28;20172;-73
2022/05/20 05:22:42;;;;;;;0.30;0.30;;;18.40;1.00;;;;;;4993764;28;20216;-74
2022/05/20 05:25:09;;;;;;;0.40;0.40;;;18.50;1.00;;;;;;4994301;28;20177;-73
2022/05/20 05:27:35;;;;;;;0.30;0.30;;;18.50;1.00;;;;;;4994887;28;20180;-73
2022/05/20 05:30:01;;;;;;;0.30;0.30;;;18.40;1.00;;;;;;4993360;28;20213;-73
2022/05/20 05:32:26;;;;;;;0.40;0.40;;;18.60;1.00;;;;;;4997566;28;20284;-73
2022/05/20 05:34:52;;;;;;;0.30;0.30;;;18.70;1.00;;;;;;5005306;28;20200;-73
2022/05/20 05:37:17;;;;;;;0.40;0.40;;;18.80;1.00;;;;;;5000433;28;20165;-74
2022/05/20 05:39:43;;;;;;;0.30;0.30;;;18.70;1.00;;;;;;5004437;28;20208;-73
2022/05/20 05:42:08;;;;;;;0.40;0.40;;;18.70;1.00;;;;;;4996428;28;20205;-74
2022/05/20 05:44:34;;;;;;;0.40;0.40;;;18.70;1.00;;;;;;4993251;28;20654;-73
2022/05/20 05:46:59;;;;;;;0.20;0.20;;;18.70;1.00;;;;;;4993592;28;20193;-73
2022/05/20 05:49:25;;;;;;;0.33;0.33;;;18.60;1.00;;;;;;4992713;28;20209;-73
2022/05/20 05:51:50;;;;;;;0.40;0.40;;;18.70;1.00;;;;;;4993218;28;20201;-74
2022/05/20 05:54:17;;;;;;;0.27;0.27;;;18.70;1.00;;;;;;4993484;28;20177;-74
2022/05/20 05:56:43;;;;;;;0.30;0.30;;;18.80;1.00;;;;;;4993083;28;20723;-74
2022/05/20 05:59:08;;;;;;;0.30;0.30;;;19.00;1.00;;;;;;5004831;28;20191;-74
2022/05/20 06:01:34;;;;;;;0.30;0.30;;;19.20;1.00;;;;;;5012499;28;20199;-74
2022/05/20 06:04:00;;;;;;;0.27;0.27;;;19.40;1.00;;;;;;5012498;28;20180;-73
2022/05/20 06:06:26;;;;;;;0.23;0.23;;;19.50;1.00;;;;;;5013061;28;20175;-74
2022/05/20 06:08:51;;;;;;;0.30;0.30;;;19.70;1.00;;;;;;5012079;28;20216;-74
2022/05/20 06:11:17;;;;;;;0.30;0.30;;;19.80;1.00;;;;;;5012345;28;20275;-75
2022/05/20 06:13:42;;;;;;;0.30;0.30;;;20.00;1.00;;;;;;5012845;28;20187;-75
2022/05/20 06:16:08;;;;;;;0.30;0.30;;;20.10;1.00;;;;;;5011646;28;20271;-74
2022/05/20 06:18:34;;;;;;;0.30;0.30;;;20.30;99.90;;;;;;5011763;28;20210;-72
2022/05/20 06:21:00;;;;;;;0.40;0.40;;;20.50;99.90;;;;;;5009611;28;20259;-71
2022/05/20 06:23:26;;;;;;;0.30;0.30;;;20.60;99.90;;;;;;5012110;28;20234;-72
2022/05/20 06:25:53;;;;;;;0.30;0.30;;;20.80;1.00;;;;;;5011060;28;20173;-72
2022/05/20 06:28:19;;;;;;;0.30;0.30;;;20.90;1.00;;;;;;5011193;28;20200;-72
2022/05/20 06:30:45;;;;;;;0.20;0.20;;;21.00;99.90;;;;;;5010987;28;20737;-72
2022/05/20 06:33:12;;;;;;;0.30;0.30;;;20.90;99.90;;;;;;5011989;28;20268;-74
2022/05/20 06:41:07;;;;;;;0.20;0.20;;;21.00;1.00;;;;;;5009723;28;20247;-74
2022/05/20 06:43:33;;;;;;;0.30;0.30;;;21.00;89.50;;;;;;5011689;28;20180;-76
2022/05/20 06:46:01;;;;;;;0.40;0.40;;;21.20;1.00;;;;;;5011530;28;20184;-75
2022/05/20 06:48:40;;;;;;;0.30;0.30;;;21.30;99.90;;;;;;5011807;28;20185;-73
2022/05/20 06:51:07;;;;;;;0.20;0.20;;;21.40;99.90;;;;;;5010957;28;20248;-74
2022/05/20 06:53:34;;;;;;;0.30;0.30;;;21.50;99.90;;;;;;5011643;28;20172;-73
2022/05/20 06:55:59;;;;;;;0.20;0.20;;;21.80;99.90;;;;;;5011551;28;20287;-73
2022/05/20 06:58:25;;;;;;;0.33;0.33;;;22.10;99.90;;;;;;5011201;28;20199;-73
2022/05/20 07:00:50;;;;;;;0.30;0.30;;;22.40;1.00;;;;;;5010915;28;20197;-74
2022/05/20 07:03:19;;;;;;;0.30;0.30;;;22.70;1.00;;;;;;5011634;28;20223;-74
2022/05/20 07:05:45;;;;;;;0.33;0.33;;;22.90;1.00;;;;;;5011340;28;20177;-74
2022/05/20 07:08:11;;;;;;;0.20;0.20;;;22.90;1.00;;;;;;5011635;28;20263;-73
2022/05/20 07:10:37;;;;;;;0.30;0.30;;;22.90;1.00;;;;;;5011094;28;20222;-74
2022/05/20 07:13:02;;;;;;;0.20;0.20;;;23.00;1.00;;;;;;5011624;28;20208;-73
2022/05/20 07:15:28;;;;;;;0.20;0.20;;;23.10;1.00;;;;;;5011199;28;20176;-74
2022/05/20 07:17:53;;;;;;;0.20;0.20;;;23.20;1.00;;;;;;5011006;28;20608;-75
2022/05/20 07:20:19;;;;;;;0.30;0.30;;;23.20;1.00;;;;;;5011227;28;20181;-76
2022/05/20 07:22:45;;;;;;;0.30;0.30;;;23.20;1.00;;;;;;5011297;28;20295;-74
2022/05/20 07:25:11;;;;;;;0.30;0.30;;;23.40;99.90;;;;;;5011493;28;20263;-74
2022/05/20 07:27:37;;;;;;;0.30;0.30;;;23.80;99.90;;;;;;5011834;28;20208;-75
2022/05/20 07:30:03;;;;;;;0.20;0.20;;;24.00;99.90;;;;;;5014844;28;20255;-75
2022/05/20 07:32:28;;;;;;;0.30;0.30;;;24.30;57.70;;;;;;5014989;28;20217;-75
2022/05/20 07:34:54;;;;;;;0.20;0.20;;;24.50;1.00;;;;;;5015347;28;20189;-73
2022/05/20 07:37:19;;;;;;;0.30;0.30;;;24.70;1.00;;;;;;5015193;28;20173;-75
2022/05/20 07:39:45;;;;;;;0.30;0.30;;;24.80;1.00;;;;;;5014551;28;20227;-75
2022/05/20 07:42:11;;;;;;;0.30;0.30;;;25.10;1.00;;;;;;5014996;28;20193;-74
2022/05/20 07:44:36;;;;;;;0.30;0.30;;;25.50;1.00;;;;;;5014969;28;20180;-75
2022/05/20 07:47:03;;;;;;;0.37;0.37;;;25.90;1.00;;;;;;5014847;28;20268;-74
2022/05/20 07:49:28;;;;;;;0.43;0.43;;;26.40;1.00;;;;;;5014309;28;20211;-74
2022/05/20 07:51:57;;;;;;;0.40;0.40;;;27.00;1.00;;;;;;5014698;28;20203;-76
2022/05/20 07:54:26;;;;;;;0.50;0.50;;;27.60;1.00;;;;;;5014905;28;20267;-78
2022/05/20 07:57:01;;;;;;;0.50;0.50;;;27.90;1.00;;;;;;5014971;28;20177;-76
2022/05/20 07:59:53;;;;;;;0.50;0.50;;;28.30;1.00;;;;;;5013984;28;20179;-76
2022/05/20 08:02:22;;;;;;;0.50;0.50;;;28.70;1.00;;;;;;5012498;28;20215;-76
2022/05/20 08:04:56;;;;;;;0.60;0.60;;;28.80;1.00;;;;;;5014825;28;20176;-76
2022/05/20 08:07:41;;;;;;;0.50;0.50;;;29.10;1.00;;;;;;5013985;28;20664;-75
2022/05/20 08:10:11;;;;;;;0.50;0.50;;;29.00;1.00;;;;;;5013795;28;20217;-76
2022/05/20 08:12:37;;;;;;;0.53;0.53;;;28.90;1.00;;;;;;5014546;28;20199;-76
2022/05/20 08:15:03;;;;;;;0.60;0.60;;;29.30;1.00;;;;;;5014035;28;20259;-76
2022/05/20 08:17:29;;;;;;;0.40;0.40;;;29.20;1.00;;;;;;5013900;28;20570;-76
2022/05/20 08:19:55;;;;;;;0.50;0.50;;;29.20;1.00;;;;;;5013462;28;20184;-76
2022/05/20 08:22:22;;;;;;;0.40;0.40;;;29.00;1.00;;;;;;5014132;28;20219;-76
2022/05/20 08:24:52;;;;;;;0.40;0.40;;;29.40;1.00;;;;;;5014056;28;20716;-75
2022/05/20 08:27:22;;;;;;;0.57;0.57;;;29.90;1.00;;;;;;5015584;28;20188;-75
2022/05/20 08:29:48;;;;;;;0.50;0.50;;;29.80;1.00;;;;;;5013486;28;20630;-76
2022/05/20 08:32:15;;;;;;;0.60;0.60;;;30.20;1.00;;;;;;5014422;28;20283;-76
2022/05/20 08:34:45;;;;;;;0.53;0.53;;;30.30;1.00;;;;;;5014097;28;20195;-76
2022/05/20 08:37:12;;;;;;;0.50;0.50;;;30.20;1.00;;;;;;5013941;28;20258;-76
2022/05/20 08:39:38;;;;;;;0.60;0.60;;;30.40;1.00;;;;;;5013051;28;20218;-76
2022/05/20 08:42:07;;;;;;;0.50;0.50;;;30.30;1.00;;;;;;5013888;28;20208;-77
2022/05/20 08:44:34;;;;;;;0.70;0.70;;;30.00;1.00;;;;;;5014279;28;20177;-76
2022/05/20 08:47:23;;;;;;;0.47;0.47;;;30.30;1.00;;;;;;5014281;28;20730;-76
2022/05/20 08:49:57;;;;;;;0.60;0.60;;;30.90;1.00;;;;;;5013185;28;20267;-76
2022/05/20 08:52:22;;;;;;;0.55;0.55;;;31.10;1.00;;;;;;5013681;28;20220;-76
2022/05/20 08:54:48;;;;;;;0.60;0.60;;;31.00;1.00;;;;;;5013710;28;20200;-76
2022/05/20 08:57:17;;;;;;;0.63;0.63;;;30.80;1.00;;;;;;5014145;28;20638;-76
2022/05/20 08:59:43;;;;;;;0.60;0.60;;;30.90;1.00;;;;;;5013128;28;20173;-76
2022/05/20 09:02:08;;;;;;;0.60;0.60;;;31.10;1.00;;;;;;5013509;28;20203;-76
2022/05/20 09:04:34;;;;;;;0.60;0.60;;;31.00;1.00;;;;;;5014184;28;20343;-77
2022/05/20 09:07:09;;;;;;;0.50;0.50;;;31.10;1.00;;;;;;5014887;28;20275;-77
2022/05/20 09:10:01;;;;;;;0.30;0.30;;;31.50;1.00;;;;;;5013449;28;20212;-77
2022/05/20 09:12:38;;;;;;;0.60;0.60;;;31.40;1.00;;;;;;5013282;28;20197;-77
2022/05/20 09:18:08;;;;;;;0.60;0.60;;;31.80;1.00;;;;;;5013090;28;20191;-76
2022/05/20 09:20:41;;;;;;;0.68;0.68;;;32.10;1.00;;;;;;5012343;28;20184;-76
2022/05/20 09:23:07;;;;;;;0.52;0.52;;;32.20;1.00;;;;;;5013008;28;20200;-75
2022/05/20 09:25:35;;;;;;;0.60;0.60;;;31.70;1.00;;;;;;5013085;28;20172;-77
2022/05/20 09:28:31;;;;;;;0.70;0.70;;;31.40;1.00;;;;;;5013156;28;20168;-76
2022/05/20 09:31:24;;;;;;;0.60;0.60;;;31.90;1.00;;;;;;5012371;28;20239;-77
2022/05/20 09:34:15;;;;;;;0.60;0.60;;;32.20;1.00;;;;;;5012919;28;20670;-77
2022/05/20 09:36:57;;;;;;;0.60;0.60;;;32.70;1.00;;;;;;5014754;28;20551;-78
2022/05/20 09:39:26;;;;;;;0.50;0.50;;;33.00;1.00;;;;;;5012181;28;20540;-77
2022/05/20 09:41:55;;;;;;;0.30;0.30;;;33.00;1.00;;;;;;5012610;28;20196;-77
2022/05/20 09:44:24;;;;;;;0.45;0.45;;;32.90;1.00;;;;;;5011327;28;20196;-77
2022/05/20 09:46:52;;;;;;;0.50;0.50;;;32.90;1.00;;;;;;5012433;28;20169;-76
2022/05/20 09:49:38;;;;;;;0.40;0.40;;;32.50;1.00;;;;;;5012148;28;20220;-77
2022/05/20 09:52:16;;;;;;;0.40;0.40;;;32.30;1.00;;;;;;5006240;28;20210;-77
2022/05/20 09:54:47;;;;;;;0.40;0.40;;;32.00;1.00;;;;;;5003364;28;20626;-76
2022/05/20 09:57:27;;;;;;;0.50;0.50;;;31.90;1.00;;;;;;5003371;28;20275;-77
2022/05/20 10:00:04;;;;;;;0.60;0.60;;;31.90;1.00;;;;;;5001306;28;20974;-77
2022/05/20 10:02:49;;;;;;;0.50;0.50;;;31.90;1.00;;;;;;5002915;28;20212;-77
2022/05/20 10:05:52;;;;;;;0.47;0.47;;;31.40;1.00;;;;;;5003320;28;20184;-76
2022/05/20 10:08:39;;;;;;;0.50;0.50;;;31.40;1.00;;;;;;5003081;28;20199;-77
2022/05/20 10:11:16;;;;;;;0.50;0.50;;;31.40;1.00;;;;;;5002651;28;20596;-78
2022/05/20 10:14:05;;;;;;;0.70;0.70;;;31.90;1.00;;;;;;5002940;28;20885;-77
2022/05/20 10:16:54;;;;;;;0.50;0.50;;;32.00;1.00;;;;;;4992107;28;20192;-76
2022/05/20 10:19:26;;;;;;;0.60;0.60;;;31.80;1.00;;;;;;5002502;28;20215;-77
2022/05/20 10:22:10;;;;;;;0.40;0.40;;;32.20;1.00;;;;;;5002893;28;20231;-76
2022/05/20 10:25:03;;;;;;;0.60;0.60;;;32.50;1.00;;;;;;5002805;28;20195;-77
2022/05/20 10:27:49;;;;;;;0.60;0.60;;;32.50;1.00;;;;;;5009683;28;20287;-77
2022/05/20 10:33:09;;;;;;;0.30;0.30;;;32.30;1.00;;;;;;5012139;28;20188;-77
2022/05/20 10:36:12;;;;;;;0.60;0.60;;;32.60;1.00;;;;;;5007172;28;20188;-77
2022/05/20 10:38:45;;;;;;;0.50;0.50;;;32.80;1.00;;;;;;5007704;28;20238;-79
2022/05/20 10:41:28;;;;;;;0.53;0.53;;;32.60;1.00;;;;;;5002278;28;20243;-78
2022/05/20 10:50:37;;;;;;;0.52;0.52;;;32.30;1.00;;;;;;5002333;28;20227;-77
2022/05/20 10:53:41;;;;;;;0.47;0.47;;;32.30;1.00;;;;;;5002848;28;20205;-77
2022/05/20 10:56:23;;;;;;;0.50;0.50;;;31.90;1.00;;;;;;4972033;28;20181;-76
2022/05/20 10:59:10;;;;;;;0.53;0.53;;;32.10;1.00;;;;;;5007780;28;20207;-79
2022/05/20 11:01:44;;;;;;;0.53;0.53;;;32.60;1.00;;;;;;5001362;28;20204;-77
2022/05/20 11:04:33;;;;;;;0.45;0.45;;;33.10;1.00;;;;;;5001437;28;20656;-77
2022/05/20 11:07:12;;;;;;;0.50;0.50;;;33.50;1.00;;;;;;5001768;28;20188;-78
2022/05/20 11:09:59;;;;;;;0.40;0.40;;;33.70;1.00;;;;;;5001268;28;20605;-77
2022/05/20 11:12:35;;;;;;;0.50;0.50;;;33.70;1.00;;;;;;5002203;28;20287;-77
2022/05/20 11:15:34;;;;;;;0.30;0.30;;;33.50;1.00;;;;;;5001983;28;20189;-77
2022/05/20 11:18:14;;;;;;;0.45;0.45;;;33.20;1.00;;;;;;4996766;28;20189;-76
2022/05/20 11:21:10;;;;;;;0.50;0.50;;;33.40;1.00;;;;;;4992738;28;20184;-76
2022/05/20 11:23:45;;;;;;;0.30;0.30;;;33.70;1.00;;;;;;5005459;28;20267;-77
2022/05/20 11:26:44;;;;;;;0.20;0.20;;;34.00;1.00;;;;;;5007492;28;20176;-78
2022/05/20 11:29:40;;;;;;;0.40;0.40;;;33.90;1.00;;;;;;5002781;28;20764;-80
2022/05/20 11:32:19;;;;;;;0.50;0.50;;;33.60;1.00;;;;;;5001620;28;20196;-79
2022/05/20 11:35:06;;;;;;;0.30;0.30;;;33.30;1.00;;;;;;5003114;28;20246;-78
2022/05/20 11:38:01;;;;;;;0.40;0.40;;;32.90;1.00;;;;;;5003450;28;20192;-79
2022/05/20 11:40:51;;;;;;;0.47;0.47;;;32.70;1.00;;;;;;5003658;28;20184;-79
2022/05/20 11:43:55;;;;;;;0.50;0.50;;;33.00;1.00;;;;;;5003453;28;20177;-80
2022/05/20 11:46:41;;;;;;;0.60;0.60;;;33.30;1.00;;;;;;5003192;28;20185;-78
2022/05/20 11:49:14;;;;;;;0.50;0.50;;;33.20;1.00;;;;;;5002604;28;20270;-77
2022/05/20 11:52:17;;;;;;;0.50;0.50;;;33.00;1.00;;;;;;5003347;28;20314;-77
2022/05/20 11:54:57;;;;;;;0.50;0.50;;;32.90;1.00;;;;;;5003067;28;20681;-76
2022/05/20 11:57:27;;;;;;;0.60;0.60;;;32.80;1.00;;;;;;5002434;28;20203;-77
2022/05/20 12:00:11;;;;;;;0.50;0.50;;;32.60;1.00;;;;;;5001930;28;20189;-77
2022/05/20 12:02:43;;;;;;;0.60;0.60;;;32.80;1.00;;;;;;5003266;28;20747;-77
2022/05/20 12:05:14;;;;;;;0.43;0.43;;;33.10;1.00;;;;;;4992572;28;20185;-78
2022/05/20 12:07:41;;;;;;;0.60;0.60;;;33.40;1.00;;;;;;5002808;28;20271;-77
2022/05/20 12:10:38;;;;;;;0.47;0.47;;;33.60;1.00;;;;;;5009701;28;20283;-77
2022/05/20 12:13:09;;;;;;;0.50;0.50;;;33.50;1.00;;;;;;5016081;28;20188;-76
2022/05/20 12:15:47;;;;;;;0.38;0.38;;;33.70;1.00;;;;;;5017102;28;20204;-76
2022/05/20 12:24:10;;;;;;;0.50;0.50;;;33.20;1.00;;;;;;5016794;28;20189;-78
2022/05/20 12:24:15;;;;;;;0.43;0.43;;;33.50;1.00;;;;;;5005766;28;20659;-76
2022/05/20 12:26:53;;;;;;;0.40;0.40;;;33.90;1.00;;;;;;5006029;28;20721;-77
2022/05/20 12:29:43;;;;;;;0.30;0.30;;;34.40;1.00;;;;;;5005133;28;20558;-76
2022/05/20 12:32:24;;;;;;;0.40;0.40;;;33.80;1.00;;;;;;5006232;28;20216;-77
2022/05/20 12:35:24;;;;;;;0.40;0.40;;;33.70;1.00;;;;;;5005943;28;20195;-77
2022/05/20 12:37:49;;;;;;;0.32;0.32;;;33.80;1.00;;;;;;5005153;28;20181;-77
2022/05/20 12:40:26;;;;;;;0.20;0.20;;;33.90;1.00;;;;;;5005227;28;20184;-75
2022/05/20 12:43:01;;;;;;;0.40;0.40;;;33.80;1.00;;;;;;5005751;28;21131;-77
2022/05/20 12:45:32;;;;;;;0.47;0.47;;;33.30;1.00;;;;;;5005959;28;20195;-77
2022/05/20 12:47:58;;;;;;;0.40;0.40;;;33.20;1.00;;;;;;5006147;28;20275;-77
2022/05/20 12:50:27;;;;;;;0.35;0.35;;;33.10;1.00;;;;;;5005245;28;20690;-76
2022/05/20 12:52:58;;;;;;;0.40;0.40;;;33.20;1.00;;;;;;5005254;28;20247;-77
2022/05/20 12:55:28;;;;;;;0.40;0.40;;;33.00;1.00;;;;;;5005389;28;20188;-76
2022/05/20 12:58:02;;;;;;;0.52;0.52;;;32.80;1.00;;;;;;5005770;28;20537;-77
2022/05/20 13:00:44;;;;;;;0.38;0.38;;;32.70;1.00;;;;;;5005358;28;20271;-76
2022/05/20 13:03:19;;;;;;;0.40;0.40;;;33.00;1.00;;;;;;5005652;28;20250;-75
2022/05/20 13:05:55;;;;;;;0.50;0.50;;;33.00;1.00;;;;;;5005290;28;20207;-77
2022/05/20 13:08:25;;;;;;;0.60;0.60;;;33.20;1.00;;;;;;5005434;28;20188;-75
2022/05/20 13:10:50;;;;;;;0.50;0.50;;;33.20;1.00;;;;;;5004079;28;21202;-76
2022/05/20 13:13:19;;;;;;;0.65;0.65;;;33.30;1.00;;;;;;5005281;28;20284;-80
2022/05/20 13:15:49;;;;;;;0.40;0.40;;;33.70;1.00;;;;;;5004879;28;20220;-80
2022/05/20 13:18:24;;;;;;;0.32;0.32;;;33.80;1.00;;;;;;5004499;28;20194;-77
2022/05/20 13:20:56;;;;;;;0.50;0.50;;;33.70;1.00;;;;;;5003587;28;20208;-77
2022/05/20 13:23:44;;;;;;;0.43;0.43;;;33.50;1.00;;;;;;5004781;28;20200;-76
2022/05/20 13:26:25;;;;;;;0.50;0.50;;;33.70;1.00;;;;;;5004159;28;20177;-76
2022/05/20 13:29:12;;;;;;;0.47;0.47;;;33.60;1.00;;;;;;5007248;28;20558;-78
2022/05/20 13:31:38;;;;;;;0.50;0.50;;;33.80;1.00;;;;;;5006360;28;20204;-75
2022/05/20 13:34:04;;;;;;;0.45;0.45;;;33.90;1.00;;;;;;5006065;28;20188;-76
2022/05/20 13:36:38;;;;;;;0.52;0.52;;;33.60;1.00;;;;;;5005614;28;20637;-77
2022/05/20 13:39:04;;;;;;;0.43;0.43;;;33.50;1.00;;;;;;5004701;28;20180;-76
2022/05/20 13:41:33;;;;;;;0.50;0.50;;;33.20;1.00;;;;;;5005962;28;20262;-75
2022/05/20 13:44:01;;;;;;;0.50;0.50;;;33.30;1.00;;;;;;5005316;28;20698;-75
2022/05/20 13:49:24;;;;;;;0.50;0.50;;;33.60;1.00;;;;;;5004210;28;20270;-76
2022/05/20 13:51:53;;;;;;;0.40;0.40;;;33.70;1.00;;;;;;5004535;28;20208;-76
2022/05/20 13:54:31;;;;;;;0.60;0.60;;;33.10;1.00;;;;;;5006051;28;20766;-76
2022/05/20 13:56:57;;;;;;;0.52;0.52;;;33.20;1.00;;;;;;5004588;28;20176;-75
2022/05/20 13:59:32;;;;;;;0.50;0.50;;;33.10;1.00;;;;;;5003879;28;20194;-76